createdAt,value
2023-01-11T00:02:09.706Z,3.01
2023-01-11T00:04:42.908Z,3.06
2023-01-11T00:07:12.747Z,3.16
2023-01-11T00:09:47.871Z,3.26
2023-01-11T00:12:18.939Z,3.31
2023-01-11T00:14:49.033Z,3.32
2023-01-11T00:17:18.801Z,3.43
2023-01-11T00:19:48.773Z,3.43
2023-01-11T00:22:20.605Z,3.46
2023-01-11T00:24:53.361Z,3.51
2023-01-11T00:27:23.208Z,3.56
2023-01-11T00:29:53.592Z,3.64
2023-01-11T00:32:23.472Z,3.67
2023-01-11T00:34:53.344Z,3.70
2023-01-11T00:37:23.812Z,3.74
2023-01-11T00:39:56.224Z,3.75
2023-01-11T00:42:38.544Z,3.77
2023-01-11T00:45:22.591Z,3.77
2023-01-11T00:48:01.971Z,3.86
2023-01-11T00:50:34.850Z,3.84
2023-01-11T00:53:05.038Z,3.92
2023-01-11T00:55:38.214Z,3.87
2023-01-11T00:58:08.028Z,3.86
2023-01-11T01:00:38.262Z,3.87
2023-01-11T01:03:08.350Z,3.84
2023-01-11T01:05:40.783Z,3.80
2023-01-11T01:08:11.017Z,3.84
2023-01-11T01:10:43.427Z,3.88
2023-01-11T01:13:26.946Z,3.77
2023-01-11T01:16:00.657Z,3.73
2023-01-11T01:18:30.580Z,3.70
2023-01-11T01:21:00.751Z,3.96
2023-01-11T01:23:30.897Z,3.89
2023-01-11T01:26:05.888Z,3.93
2023-01-11T01:28:36.078Z,3.84
2023-01-11T01:31:06.238Z,3.91
2023-01-11T01:33:36.600Z,3.91
2023-01-11T01:36:07.516Z,4.01
2023-01-11T01:38:37.697Z,3.76
2023-01-11T01:41:10.522Z,3.88
2023-01-11T01:43:52.038Z,3.83
2023-01-11T01:46:23.796Z,3.50
2023-01-11T01:49:02.334Z,3.64
2023-01-11T01:51:38.059Z,3.53
2023-01-11T01:54:17.890Z,3.51
2023-01-11T01:56:56.357Z,3.08
2023-01-11T01:59:31.561Z,2.76
2023-01-11T02:02:04.274Z,3.18
2023-01-11T02:04:41.787Z,3.23
2023-01-11T02:07:16.884Z,3.13
2023-01-11T02:09:54.356Z,3.08
2023-01-11T02:12:30.314Z,2.87
2023-01-11T02:15:03.640Z,2.79
2023-01-11T02:17:34.383Z,2.98
2023-01-11T02:20:20.407Z,2.95
2023-01-11T02:23:20.670Z,2.90
2023-01-11T02:26:28.681Z,2.96
2023-01-11T02:29:09.610Z,3.19
2023-01-11T02:31:49.772Z,2.84
2023-01-11T02:34:37.997Z,2.91
2023-01-11T02:37:22.691Z,2.92
2023-01-11T02:40:07.228Z,2.98
2023-01-11T02:43:01.138Z,2.97
2023-01-11T02:45:44.705Z,2.98
2023-01-11T02:48:26.652Z,3.12
2023-01-11T02:51:06.141Z,2.96
2023-01-11T02:53:44.568Z,3.01
2023-01-11T02:56:19.710Z,3.12
2023-01-11T02:58:54.156Z,3.00
2023-01-11T03:01:27.234Z,3.14
2023-01-11T03:03:57.668Z,3.15
2023-01-11T03:06:36.005Z,3.24
2023-01-11T03:09:22.697Z,3.31
2023-01-11T03:12:32.030Z,3.25
2023-01-11T03:15:19.935Z,3.32
2023-01-11T03:18:10.042Z,3.34
2023-01-11T03:20:45.310Z,3.40
2023-01-11T03:23:24.621Z,3.46
2023-01-11T03:26:04.625Z,3.24
2023-01-11T03:28:45.331Z,3.42
2023-01-11T03:31:23.385Z,3.42
2023-01-11T03:34:05.867Z,3.34
2023-01-11T03:36:42.395Z,3.43
2023-01-11T03:39:20.191Z,3.45
2023-01-11T03:41:57.819Z,3.34
2023-01-11T03:44:34.202Z,3.52
2023-01-11T03:47:11.031Z,3.33
2023-01-11T03:49:49.867Z,3.48
2023-01-11T03:52:25.834Z,3.47
2023-01-11T03:55:00.236Z,3.55
2023-01-11T03:57:35.612Z,3.61
2023-01-11T04:00:07.791Z,3.66
2023-01-11T04:02:42.453Z,3.68
2023-01-11T04:05:15.589Z,3.71
2023-01-11T04:07:45.444Z,3.79
2023-01-11T04:10:15.319Z,3.77
2023-01-11T04:12:45.337Z,3.87
2023-01-11T04:15:15.238Z,3.86
2023-01-11T04:17:45.750Z,3.90
2023-01-11T04:20:18.956Z,3.92
2023-01-11T04:22:48.836Z,3.95
2023-01-11T04:25:19.257Z,3.98
2023-01-11T04:27:50.031Z,3.97
2023-01-11T04:30:20.621Z,3.97
2023-01-11T04:32:50.559Z,4.02
2023-01-11T04:35:23.123Z,4.01
2023-01-11T04:37:56.636Z,3.91
2023-01-11T04:40:27.540Z,4.02
2023-01-11T04:42:54.835Z,3.94
2023-01-11T04:45:24.836Z,3.87
2023-01-11T04:47:57.723Z,3.98
2023-01-11T04:50:31.027Z,3.95
2023-01-11T04:53:01.759Z,4.03
2023-01-11T04:55:31.664Z,3.98
2023-01-11T04:58:01.893Z,3.74
2023-01-11T05:00:31.776Z,3.89
2023-01-11T05:03:02.144Z,3.93
2023-01-11T05:05:35.003Z,3.78
2023-01-11T05:08:05.019Z,3.82
2023-01-11T05:10:35.079Z,3.88
2023-01-11T05:13:05.592Z,3.97
2023-01-11T05:15:37.660Z,3.96
2023-01-11T05:18:07.588Z,4.03
2023-01-11T05:20:40.198Z,4.04
2023-01-11T05:23:10.273Z,4.08
2023-01-11T05:25:40.462Z,4.11
2023-01-11T05:28:10.236Z,4.18
2023-01-11T05:30:40.058Z,4.19
2023-01-11T05:33:09.838Z,4.25
2023-01-11T05:35:42.962Z,4.32
2023-01-11T05:38:13.100Z,4.30
2023-01-11T05:40:43.237Z,4.42
2023-01-11T05:43:13.194Z,4.39
2023-01-11T05:45:40.741Z,4.42
2023-01-11T05:48:10.731Z,4.44
2023-01-11T05:50:43.173Z,4.47
2023-01-11T05:53:13.841Z,4.46
2023-01-11T05:55:54.234Z,4.53
2023-01-11T05:58:24.315Z,4.61
2023-01-11T06:00:56.461Z,4.62
2023-01-11T06:03:28.486Z,4.61
2023-01-11T06:06:02.544Z,4.60
2023-01-11T06:08:32.362Z,4.62
2023-01-11T06:11:02.617Z,4.60
2023-01-11T06:13:33.989Z,4.58
2023-01-11T06:16:05.855Z,4.63
2023-01-11T06:18:38.413Z,4.61
2023-01-11T06:21:12.280Z,4.62
2023-01-11T06:23:44.220Z,4.46
2023-01-11T06:26:16.417Z,4.49
2023-01-11T06:28:46.944Z,4.44
2023-01-11T06:31:18.242Z,4.48
2023-01-11T06:33:48.378Z,4.46
2023-01-11T06:36:22.340Z,4.60
2023-01-11T06:38:52.176Z,4.69
2023-01-11T06:41:22.055Z,4.68
2023-01-11T06:43:53.903Z,4.78
2023-01-11T06:46:24.180Z,4.80
2023-01-11T06:48:54.092Z,4.91
2023-01-11T06:51:26.737Z,4.90
2023-01-11T06:53:56.550Z,4.88
2023-01-11T06:56:27.616Z,5.01
2023-01-11T06:58:57.717Z,5.06
2023-01-11T07:01:30.164Z,5.04
2023-01-11T07:04:00.189Z,5.02
2023-01-11T07:06:32.644Z,5.02
2023-01-11T07:09:02.851Z,5.07
2023-01-11T07:11:34.945Z,5.09
2023-01-11T07:14:04.787Z,5.05
2023-01-11T07:16:34.943Z,5.15
2023-01-11T07:19:05.083Z,5.25
2023-01-11T07:21:37.512Z,5.32
2023-01-11T07:24:08.601Z,5.35
2023-01-11T07:26:41.456Z,5.33
2023-01-11T07:29:11.571Z,5.36
2023-01-11T07:31:41.482Z,5.44
2023-01-11T07:34:11.282Z,5.38
2023-01-11T07:36:43.943Z,5.48
2023-01-11T07:39:14.150Z,5.55
2023-01-11T07:41:56.448Z,5.63
2023-01-11T07:44:26.265Z,5.79
2023-01-11T07:46:56.266Z,6.41
2023-01-11T07:49:26.414Z,6.11
2023-01-11T07:51:59.038Z,6.45
2023-01-11T07:54:28.861Z,6.05
2023-01-11T07:56:59.212Z,6.11
2023-01-11T07:59:29.100Z,6.27
2023-01-11T08:01:59.208Z,6.56
2023-01-11T08:04:29.369Z,6.63
2023-01-11T08:07:01.839Z,6.53
2023-01-11T08:09:31.784Z,6.73
2023-01-11T08:12:14.089Z,6.80
2023-01-11T08:14:44.159Z,6.84
2023-01-11T08:17:16.856Z,6.62
2023-01-11T08:19:46.763Z,6.67
2023-01-11T08:22:20.282Z,6.69
2023-01-11T08:24:50.800Z,6.84
2023-01-11T08:27:20.640Z,6.91
2023-01-11T08:29:50.492Z,7.09
2023-01-11T08:32:20.453Z,6.97
2023-01-11T08:34:50.405Z,7.25
2023-01-11T08:37:22.979Z,7.48
2023-01-11T08:39:53.548Z,7.19
2023-01-11T08:42:23.548Z,7.40
2023-01-11T08:44:53.382Z,7.60
2023-01-11T08:47:23.472Z,7.51
2023-01-11T08:49:54.758Z,7.78
2023-01-11T08:52:27.347Z,8.07
2023-01-11T08:54:57.270Z,8.57
2023-01-11T08:57:27.266Z,8.54
2023-01-11T08:59:57.331Z,9.24
2023-01-11T09:02:27.251Z,9.79
2023-01-11T09:04:57.368Z,10.03
2023-01-11T09:07:30.114Z,9.85
2023-01-11T09:10:00.237Z,10.29
2023-01-11T09:12:30.161Z,10.47
2023-01-11T09:15:00.534Z,10.45
2023-01-11T09:17:30.702Z,10.96
2023-01-11T09:20:00.578Z,10.03
2023-01-11T09:22:33.870Z,10.09
2023-01-11T09:25:04.014Z,10.27
2023-01-11T09:27:34.519Z,10.71
2023-01-11T09:30:05.528Z,11.37
2023-01-11T09:32:35.471Z,11.55
2023-01-11T09:35:05.519Z,11.73
2023-01-11T09:37:41.438Z,11.33
2023-01-11T09:40:21.752Z,12.27
2023-01-11T09:42:53.811Z,13.08
2023-01-11T09:45:28.436Z,13.18
2023-01-11T09:48:03.855Z,14.17
2023-01-11T09:50:40.095Z,12.91
2023-01-11T09:53:24.469Z,12.57
2023-01-11T09:55:56.934Z,13.72
2023-01-11T09:58:46.628Z,14.57
2023-01-11T10:01:27.578Z,15.48
2023-01-11T10:04:32.997Z,15.81
2023-01-11T10:07:23.107Z,16.03
2023-01-11T10:18:39.749Z,13.81
2023-01-11T10:19:41.021Z,12.96
2023-01-11T10:22:23.520Z,12.75
2023-01-11T10:25:07.544Z,12.78
2023-01-11T10:27:44.711Z,13.46
2023-01-11T10:30:34.841Z,14.04
2023-01-11T10:33:18.743Z,13.60
2023-01-11T10:36:10.691Z,13.45
2023-01-11T10:38:59.221Z,13.63
2023-01-11T10:41:43.318Z,14.28
2023-01-11T10:44:26.830Z,14.72
2023-01-11T10:47:00.047Z,15.10
2023-01-11T10:49:45.488Z,14.99
2023-01-11T10:52:28.409Z,15.00
2023-01-11T10:55:04.509Z,15.18
2023-01-11T10:58:00.271Z,15.02
2023-01-11T11:00:40.320Z,14.72
2023-01-11T11:03:46.268Z,14.64
2023-01-11T11:06:32.820Z,14.60
2023-01-11T11:09:16.171Z,14.15
2023-01-11T11:11:54.364Z,14.33
2023-01-11T11:14:37.088Z,14.04
2023-01-11T11:17:20.617Z,13.96
2023-01-11T11:19:50.512Z,13.68
2023-01-11T11:22:21.503Z,13.33
2023-01-11T11:24:58.315Z,13.50
2023-01-11T11:27:36.130Z,13.53
2023-01-11T11:30:14.671Z,13.60
2023-01-11T11:32:57.572Z,13.40
2023-01-11T11:35:39.708Z,13.22
2023-01-11T11:38:10.300Z,13.32
2023-01-11T11:40:41.628Z,13.22
2023-01-11T11:43:22.306Z,13.21
2023-01-11T11:46:00.440Z,13.09
2023-01-11T11:48:33.756Z,13.01
2023-01-11T11:51:08.073Z,12.85
2023-01-11T11:53:46.196Z,12.81
2023-01-11T11:56:26.355Z,12.63
2023-01-11T11:58:59.019Z,12.56
2023-01-11T12:01:35.907Z,12.56
2023-01-11T12:04:14.726Z,12.45
2023-01-11T12:06:46.516Z,12.44
2023-01-11T12:09:31.466Z,12.44
2023-01-11T12:12:03.087Z,12.33
2023-01-11T12:14:35.299Z,12.32
2023-01-11T12:17:26.172Z,12.21
2023-01-11T12:19:56.182Z,12.11
2023-01-11T12:22:29.087Z,12.09
2023-01-11T12:25:25.039Z,12.11
2023-01-11T12:28:08.656Z,12.02
2023-01-11T12:30:54.326Z,12.05
2023-01-11T12:33:42.981Z,11.87
2023-01-11T12:36:22.527Z,11.86
2023-01-11T12:39:06.324Z,11.81
2023-01-11T12:42:06.735Z,11.81
2023-01-11T12:45:00.647Z,11.82
2023-01-11T12:48:05.088Z,11.76
2023-01-11T12:50:49.833Z,11.77
2023-01-11T12:53:38.161Z,11.82
2023-01-11T12:56:42.227Z,11.75
2023-01-11T12:59:29.067Z,11.70
2023-01-11T13:02:21.185Z,11.67
2023-01-11T13:05:05.702Z,11.78
2023-01-11T13:07:54.702Z,11.71
2023-01-11T13:10:42.036Z,11.69
2023-01-11T13:13:18.806Z,11.66
2023-01-11T13:15:58.626Z,11.62
2023-01-11T13:18:41.612Z,11.63
2023-01-11T13:21:25.557Z,11.74
2023-01-11T13:24:04.375Z,11.65
2023-01-11T13:26:39.884Z,11.67
2023-01-11T13:29:18.867Z,11.69
2023-01-11T13:31:51.449Z,11.68
2023-01-11T13:34:29.681Z,11.57
2023-01-11T13:37:06.938Z,11.55
2023-01-11T13:39:48.475Z,11.48
2023-01-11T13:42:24.524Z,11.46
2023-01-11T13:45:02.835Z,11.49
2023-01-11T13:47:42.649Z,11.45
2023-01-11T13:50:20.685Z,11.49
2023-01-11T13:53:06.107Z,11.46
2023-01-11T13:55:50.429Z,11.37
2023-01-11T13:58:29.254Z,11.39
2023-01-11T14:01:08.315Z,11.33
2023-01-11T14:03:48.912Z,11.28
2023-01-11T14:06:44.541Z,11.24
2023-01-11T14:09:41.445Z,11.13
2023-01-11T14:12:25.533Z,11.03
2023-01-11T14:15:23.050Z,10.98
2023-01-11T14:18:21.347Z,10.96
2023-01-11T14:21:04.120Z,10.80
2023-01-11T14:23:49.476Z,10.74
2023-01-11T14:26:50.089Z,10.58
2023-01-11T14:29:53.148Z,10.53
2023-01-11T14:32:42.713Z,10.38
2023-01-11T14:35:46.419Z,10.37
2023-01-11T14:38:43.232Z,10.28
2023-01-11T14:41:54.581Z,10.24
2023-01-11T14:44:58.621Z,10.12
2023-01-11T14:48:02.489Z,10.11
2023-01-11T14:50:46.645Z,10.11
2023-01-11T14:53:25.457Z,10.01
2023-01-11T14:55:55.659Z,9.95
2023-01-11T14:58:29.466Z,9.94
2023-01-11T15:01:13.179Z,9.91
2023-01-11T15:03:58.263Z,9.85
2023-01-11T15:06:33.656Z,9.89
2023-01-11T15:09:03.546Z,10.18
2023-01-11T15:11:41.901Z,10.59
2023-01-11T15:14:29.804Z,11.32
2023-01-11T15:17:17.428Z,11.30
2023-01-11T15:19:49.158Z,11.37
2023-01-11T15:22:35.080Z,11.16
2023-01-11T15:25:07.620Z,10.41
2023-01-11T15:27:41.024Z,10.25
2023-01-11T15:30:53.952Z,10.04
2023-01-11T15:33:51.279Z,10.07
2023-01-11T15:36:25.744Z,10.03
2023-01-11T15:39:06.278Z,9.91
2023-01-11T15:42:07.027Z,9.93
2023-01-11T15:45:00.692Z,10.01
2023-01-11T15:47:54.597Z,10.02
2023-01-11T15:50:54.870Z,9.90
2023-01-11T15:54:01.921Z,9.85
2023-01-11T15:56:59.263Z,9.82
2023-01-11T15:59:49.775Z,9.64
2023-01-11T16:02:52.913Z,9.49
2023-01-11T16:05:27.988Z,9.38
2023-01-11T16:08:16.057Z,9.30
2023-01-11T16:11:00.408Z,9.27
2023-01-11T16:13:56.878Z,9.26
2023-01-11T16:16:32.383Z,9.23
2023-01-11T16:19:17.182Z,9.19
2023-01-11T16:21:50.268Z,9.13
2023-01-11T16:24:23.415Z,9.10
2023-01-11T16:26:58.518Z,9.08
2023-01-11T16:29:35.540Z,9.02
2023-01-11T16:32:08.797Z,9.03
2023-01-11T16:34:47.703Z,8.98
2023-01-11T16:37:26.904Z,9.00
2023-01-11T16:40:02.823Z,8.97
2023-01-11T16:42:38.531Z,8.94
2023-01-11T16:45:16.978Z,9.50
2023-01-11T16:48:06.268Z,10.22
2023-01-11T16:51:00.738Z,10.48
2023-01-11T16:53:33.130Z,10.57
2023-01-11T16:56:08.335Z,10.61
2023-01-11T16:58:40.580Z,10.58
2023-01-11T17:01:13.732Z,10.49
2023-01-11T17:03:52.733Z,10.52
2023-01-11T17:06:27.633Z,10.35
2023-01-11T17:09:00.207Z,9.63
2023-01-11T17:11:39.746Z,9.35
2023-01-11T17:14:40.298Z,9.23
2023-01-11T17:17:13.909Z,9.16
2023-01-11T17:19:50.690Z,9.06
2023-01-11T17:22:28.105Z,9.00
2023-01-11T17:25:01.644Z,8.97
2023-01-11T17:27:35.955Z,8.97
2023-01-11T17:30:14.544Z,8.91
2023-01-11T17:32:48.905Z,8.87
2023-01-11T17:35:23.788Z,8.87
2023-01-11T17:38:01.084Z,8.88
2023-01-11T17:40:35.520Z,8.81
2023-01-11T17:43:27.430Z,8.79
2023-01-11T17:46:02.144Z,8.79
2023-01-11T17:48:33.492Z,8.74
2023-01-11T17:51:06.583Z,8.77
2023-01-11T17:53:40.226Z,8.71
2023-01-11T17:56:48.037Z,8.67
2023-01-11T17:59:24.709Z,8.65
2023-01-11T18:01:58.420Z,8.67
2023-01-11T18:04:31.455Z,8.65
2023-01-11T18:07:11.165Z,8.49
2023-01-11T18:09:50.038Z,8.45
2023-01-11T18:12:25.270Z,8.38
2023-01-11T18:14:58.901Z,8.32
2023-01-11T18:17:39.113Z,8.30
2023-01-11T18:20:40.418Z,8.23
2023-01-11T18:23:22.766Z,8.26
2023-01-11T18:26:27.567Z,8.23
2023-01-11T18:28:57.542Z,8.18
2023-01-11T18:31:27.804Z,8.14
2023-01-11T18:33:58.288Z,8.13
2023-01-11T18:36:30.005Z,8.15
2023-01-11T18:39:01.926Z,8.12
2023-01-11T18:41:47.579Z,8.12
2023-01-11T18:44:17.443Z,8.13
2023-01-11T18:46:47.547Z,8.12
2023-01-11T18:49:17.666Z,8.15
2023-01-11T18:51:47.916Z,8.13
2023-01-11T18:54:20.232Z,8.10
2023-01-11T18:56:52.692Z,8.07
2023-01-11T18:59:24.389Z,8.06
2023-01-11T19:02:04.754Z,8.05
2023-01-11T19:04:42.166Z,8.05
2023-01-11T19:07:13.187Z,7.99
2023-01-11T19:09:45.127Z,8.15
2023-01-11T19:12:18.819Z,8.65
2023-01-11T19:14:49.014Z,8.43
2023-01-11T19:17:19.351Z,8.38
2023-01-11T19:19:49.518Z,8.70
2023-01-11T19:22:23.282Z,8.51
2023-01-11T19:24:56.958Z,8.27
2023-01-11T19:27:29.616Z,8.18
2023-01-11T19:29:59.966Z,8.14
2023-01-11T19:32:29.914Z,8.15
2023-01-11T19:35:00.596Z,8.10
2023-01-11T19:37:34.196Z,8.08
2023-01-11T19:40:05.868Z,8.09
2023-01-11T19:42:40.260Z,8.06
2023-01-11T19:45:11.738Z,8.03
2023-01-11T19:47:42.274Z,8.00
2023-01-11T19:50:13.670Z,8.00
2023-01-11T19:52:43.910Z,7.99
2023-01-11T19:55:13.776Z,8.02
2023-01-11T19:57:47.104Z,8.00
2023-01-11T20:00:18.957Z,8.00
2023-01-11T20:02:49.548Z,8.02
2023-01-11T20:05:19.564Z,8.02
2023-01-11T20:07:49.671Z,8.00
2023-01-11T20:10:20.499Z,8.03
2023-01-11T20:12:53.519Z,8.02
2023-01-11T20:15:24.172Z,8.03
2023-01-11T20:17:54.065Z,8.00
2023-01-11T20:20:24.445Z,7.97
2023-01-11T20:22:54.580Z,7.97
2023-01-11T20:25:24.885Z,7.97
2023-01-11T20:27:57.482Z,7.95
2023-01-11T20:30:27.355Z,7.94
2023-01-11T20:32:57.385Z,7.96
2023-01-11T20:35:27.213Z,7.94
2023-01-11T20:37:57.304Z,7.97
2023-01-11T20:40:27.195Z,7.94
2023-01-11T20:43:00.060Z,7.95
2023-01-11T20:45:30.885Z,7.97
2023-01-11T20:48:01.425Z,7.98
2023-01-11T20:50:31.583Z,7.99
2023-01-11T20:53:01.814Z,7.96
2023-01-11T20:55:32.033Z,7.93
2023-01-11T20:58:04.595Z,7.95
2023-01-11T21:00:35.110Z,7.93
2023-01-11T21:03:05.076Z,7.91
2023-01-11T21:05:34.925Z,7.91
2023-01-11T21:08:04.739Z,7.89
2023-01-11T21:10:35.225Z,7.89
2023-01-11T21:15:39.831Z,7.87
2023-01-11T21:18:09.985Z,7.87
2023-01-11T21:20:40.145Z,7.93
2023-01-11T21:23:10.084Z,7.91
2023-01-11T21:25:39.933Z,8.08
2023-01-11T21:28:12.569Z,8.09
2023-01-11T21:30:42.727Z,8.08
2023-01-11T21:33:12.944Z,8.53
2023-01-11T21:35:43.010Z,8.14
2023-01-11T21:38:13.035Z,8.01
2023-01-11T21:40:42.896Z,7.98
2023-01-11T21:43:15.376Z,8.00
2023-01-11T21:45:45.204Z,7.98
2023-01-11T21:48:15.085Z,7.98
2023-01-11T21:50:48.381Z,7.93
2023-01-11T21:53:18.247Z,7.91
2023-01-11T21:55:48.101Z,7.98
2023-01-11T21:58:20.718Z,7.94
2023-01-11T22:00:50.785Z,7.89
2023-01-11T22:03:20.691Z,7.90
2023-01-11T22:05:50.967Z,8.05
2023-01-11T22:08:20.899Z,8.03
2023-01-11T22:10:59.374Z,7.98
2023-01-11T22:13:32.327Z,7.90
2023-01-11T22:16:03.120Z,7.86
2023-01-11T22:18:34.225Z,7.85
2023-01-11T22:21:08.688Z,7.94
2023-01-11T22:23:38.852Z,7.90
2023-01-11T22:26:11.136Z,7.82
2023-01-11T22:28:56.967Z,7.89
2023-01-11T22:31:28.985Z,7.88
2023-01-11T22:33:59.947Z,7.86
2023-01-11T22:36:31.417Z,7.90
2023-01-11T22:39:01.675Z,7.83
2023-01-11T22:41:31.606Z,7.74
2023-01-11T22:44:04.387Z,7.72
2023-01-11T22:46:34.180Z,7.79
2023-01-11T22:49:05.233Z,7.90
2023-01-11T22:51:35.951Z,7.91
2023-01-11T22:54:07.270Z,7.80
2023-01-11T22:56:37.217Z,7.85
2023-01-11T22:59:10.173Z,7.81
2023-01-11T23:01:42.548Z,7.83
2023-01-11T23:04:16.961Z,7.66
2023-01-11T23:06:47.136Z,7.66
2023-01-11T23:09:18.480Z,7.67
2023-01-11T23:12:11.845Z,7.57
2023-01-11T23:14:44.408Z,7.53
2023-01-11T23:17:14.532Z,7.57
2023-01-11T23:19:45.629Z,7.52
2023-01-11T23:22:18.668Z,7.56
2023-01-11T23:24:48.466Z,7.56
2023-01-11T23:27:18.433Z,7.56
2023-01-11T23:29:51.119Z,7.48
2023-01-11T23:32:20.956Z,7.46
2023-01-11T23:34:50.735Z,7.42
2023-01-11T23:37:20.647Z,7.43
2023-01-11T23:39:50.481Z,7.57
2023-01-11T23:42:26.722Z,7.75
2023-01-11T23:45:00.764Z,7.47
2023-01-11T23:47:30.024Z,7.57
2023-01-11T23:50:03.457Z,7.42
2023-01-11T23:52:34.965Z,7.38
2023-01-11T23:55:05.146Z,7.33
2023-01-11T23:57:35.520Z,7.22
